sensor_id;sensor_type;location;lat;lon;timestamp;pressure;altitude;pressure_sealevel;temperature;humidity
40592;BME280;26301;42.832;23.918;2023-05-07T00:01:59;93423.13;;;7.27;100.00
40592;BME280;26301;42.832;23.918;2023-05-07T00:04:25;93417.88;;;7.16;100.00
40592;BME280;26301;42.832;23.918;2023-05-07T00:06:53;93450.00;;;7.31;100.00
40592;BME280;26301;42.832;23.918;2023-05-07T00:09:19;93392.13;;;6.91;100.00
40592;BME280;26301;42.832;23.918;2023-05-07T00:11:45;93423.41;;;7.13;100.00
40592;BME280;26301;42.832;23.918;2023-05-07T00:14:11;93447.03;;;7.35;100.00
40592;BME280;26301;42.832;23.918;2023-05-07T00:16:37;93441.75;;;7.23;100.00
40592;BME280;26301;42.832;23.918;2023-05-07T00:19:03;93438.41;;;7.22;100.00
40592;BME280;26301;42.832;23.918;2023-05-07T00:21:33;93425.44;;;7.10;100.00
40592;BME280;26301;42.832;23.918;2023-05-07T00:23:59;93443.91;;;7.26;100.00
40592;BME280;26301;42.832;23.918;2023-05-07T00:26:25;93428.13;;;7.22;100.00
40592;BME280;26301;42.832;23.918;2023-05-07T00:28:51;93441.38;;;7.19;100.00
40592;BME280;26301;42.832;23.918;2023-05-07T00:31:17;93400.97;;;7.01;100.00
40592;BME280;26301;42.832;23.918;2023-05-07T00:33:43;93408.06;;;7.06;100.00
40592;BME280;26301;42.832;23.918;2023-05-07T00:36:08;93416.13;;;7.16;100.00
40592;BME280;26301;42.832;23.918;2023-05-07T00:38:35;93436.34;;;7.31;100.00
40592;BME280;26301;42.832;23.918;2023-05-07T00:41:01;93433.16;;;7.36;100.00
40592;BME280;26301;42.832;23.918;2023-05-07T00:43:28;93441.25;;;7.39;100.00
40592;BME280;26301;42.832;23.918;2023-05-07T00:45:55;93424.19;;;7.20;100.00
40592;BME280;26301;42.832;23.918;2023-05-07T00:48:21;93437.22;;;7.18;100.00
40592;BME280;26301;42.832;23.918;2023-05-07T00:50:47;93399.81;;;6.97;100.00
40592;BME280;26301;42.832;23.918;2023-05-07T00:53:14;93401.41;;;6.92;100.00
40592;BME280;26301;42.832;23.918;2023-05-07T00:55:39;93427.63;;;7.00;100.00
40592;BME280;26301;42.832;23.918;2023-05-07T00:58:06;93371.91;;;6.69;100.00
40592;BME280;26301;42.832;23.918;2023-05-07T01:00:32;93439.22;;;7.16;100.00
40592;BME280;26301;42.832;23.918;2023-05-07T01:02:58;93405.94;;;6.96;100.00
40592;BME280;26301;42.832;23.918;2023-05-07T01:05:24;93423.84;;;7.09;100.00
40592;BME280;26301;42.832;23.918;2023-05-07T01:07:56;93428.56;;;7.13;100.00
40592;BME280;26301;42.832;23.918;2023-05-07T01:10:22;93407.34;;;6.92;100.00
40592;BME280;26301;42.832;23.918;2023-05-07T01:12:50;93404.38;;;6.95;100.00
40592;BME280;26301;42.832;23.918;2023-05-07T01:15:21;93423.06;;;7.09;100.00
40592;BME280;26301;42.832;23.918;2023-05-07T01:17:46;93433.09;;;7.17;100.00
40592;BME280;26301;42.832;23.918;2023-05-07T01:20:13;93431.53;;;7.09;100.00
40592;BME280;26301;42.832;23.918;2023-05-07T01:22:39;93430.00;;;7.02;100.00
40592;BME280;26301;42.832;23.918;2023-05-07T01:25:07;93391.81;;;6.74;100.00
40592;BME280;26301;42.832;23.918;2023-05-07T01:27:35;93428.69;;;6.93;100.00
40592;BME280;26301;42.832;23.918;2023-05-07T01:30:05;93436.38;;;6.93;100.00
40592;BME280;26301;42.832;23.918;2023-05-07T01:32:44;93398.38;;;6.70;100.00
40592;BME280;26301;42.832;23.918;2023-05-07T01:35:20;93398.31;;;6.76;100.00
40592;BME280;26301;42.832;23.918;2023-05-07T01:37:48;93429.22;;;7.01;100.00
40592;BME280;26301;42.832;23.918;2023-05-07T01:40:15;93433.53;;;7.07;100.00
40592;BME280;26301;42.832;23.918;2023-05-07T01:42:43;93395.34;;;6.86;100.00
40592;BME280;26301;42.832;23.918;2023-05-07T01:45:09;93401.00;;;6.95;100.00
40592;BME280;26301;42.832;23.918;2023-05-07T01:47:39;93428.78;;;7.11;100.00
40592;BME280;26301;42.832;23.918;2023-05-07T01:50:06;93422.28;;;7.08;100.00
40592;BME280;26301;42.832;23.918;2023-05-07T01:52:34;93395.75;;;6.83;100.00
40592;BME280;26301;42.832;23.918;2023-05-07T01:55:03;93404.44;;;6.82;100.00
40592;BME280;26301;42.832;23.918;2023-05-07T01:57:29;93400.69;;;6.78;100.00
40592;BME280;26301;42.832;23.918;2023-05-07T01:59:58;93418.41;;;6.93;100.00
40592;BME280;26301;42.832;23.918;2023-05-07T02:02:24;93418.03;;;6.89;100.00
40592;BME280;26301;42.832;23.918;2023-05-07T02:04:50;93417.63;;;6.92;100.00
40592;BME280;26301;42.832;23.918;2023-05-07T02:07:16;93413.88;;;6.88;100.00
40592;BME280;26301;42.832;23.918;2023-05-07T02:09:41;93399.09;;;6.77;100.00
40592;BME280;26301;42.832;23.918;2023-05-07T02:12:07;93408.63;;;6.70;100.00
40592;BME280;26301;42.832;23.918;2023-05-07T02:14:33;93414.16;;;6.67;100.00
40592;BME280;26301;42.832;23.918;2023-05-07T02:16:59;93407.88;;;6.62;100.00
40592;BME280;26301;42.832;23.918;2023-05-07T02:19:24;93401.00;;;6.50;100.00
40592;BME280;26301;42.832;23.918;2023-05-07T02:21:51;93368.31;;;6.25;100.00
40592;BME280;26301;42.832;23.918;2023-05-07T02:24:18;93402.38;;;6.52;100.00
40592;BME280;26301;42.832;23.918;2023-05-07T02:26:44;93392.34;;;6.44;100.00
40592;BME280;26301;42.832;23.918;2023-05-07T02:29:10;93393.34;;;6.43;100.00
40592;BME280;26301;42.832;23.918;2023-05-07T02:31:36;93380.94;;;6.33;100.00
40592;BME280;26301;42.832;23.918;2023-05-07T02:34:02;93389.44;;;6.27;100.00
40592;BME280;26301;42.832;23.918;2023-05-07T02:36:28;93362.47;;;6.11;100.00
40592;BME280;26301;42.832;23.918;2023-05-07T02:38:54;93367.59;;;6.11;100.00
40592;BME280;26301;42.832;23.918;2023-05-07T02:41:20;93384.16;;;6.15;100.00
40592;BME280;26301;42.832;23.918;2023-05-07T02:43:47;93298.28;;;5.60;100.00
40592;BME280;26301;42.832;23.918;2023-05-07T02:46:13;93393.38;;;6.30;100.00
40592;BME280;26301;42.832;23.918;2023-05-07T02:55:22;93382.06;;;6.51;100.00
40592;BME280;26301;42.832;23.918;2023-05-07T02:57:48;93331.25;;;6.21;100.00
40592;BME280;26301;42.832;23.918;2023-05-07T03:00:15;93377.13;;;6.49;100.00
40592;BME280;26301;42.832;23.918;2023-05-07T03:02:41;93376.56;;;6.47;100.00
40592;BME280;26301;42.832;23.918;2023-05-07T03:05:08;93370.47;;;6.41;100.00
40592;BME280;26301;42.832;23.918;2023-05-07T03:07:38;93362.56;;;6.36;100.00
40592;BME280;26301;42.832;23.918;2023-05-07T03:10:05;93381.28;;;6.50;100.00
40592;BME280;26301;42.832;23.918;2023-05-07T03:12:31;93375.00;;;6.39;100.00
40592;BME280;26301;42.832;23.918;2023-05-07T03:14:57;93358.47;;;6.29;100.00
40592;BME280;26301;42.832;23.918;2023-05-07T03:17:24;93378.97;;;6.35;100.00
40592;BME280;26301;42.832;23.918;2023-05-07T03:19:57;93394.75;;;6.39;100.00
40592;BME280;26301;42.832;23.918;2023-05-07T03:22:28;93395.72;;;6.45;100.00
40592;BME280;26301;42.832;23.918;2023-05-07T03:24:54;93381.16;;;6.32;100.00
40592;BME280;26301;42.832;23.918;2023-05-07T03:27:20;93397.50;;;6.44;100.00
40592;BME280;26301;42.832;23.918;2023-05-07T03:29:46;93394.72;;;6.46;100.00
40592;BME280;26301;42.832;23.918;2023-05-07T03:32:13;93373.22;;;6.40;100.00
40592;BME280;26301;42.832;23.918;2023-05-07T03:34:39;93357.66;;;6.28;100.00
40592;BME280;26301;42.832;23.918;2023-05-07T03:37:09;93389.38;;;6.47;100.00
40592;BME280;26301;42.832;23.918;2023-05-07T03:39:35;93382.09;;;6.44;100.00
40592;BME280;26301;42.832;23.918;2023-05-07T03:42:02;93366.69;;;6.37;100.00
40592;BME280;26301;42.832;23.918;2023-05-07T03:44:28;93365.34;;;6.35;100.00
40592;BME280;26301;42.832;23.918;2023-05-07T03:46:54;93390.53;;;6.51;100.00
40592;BME280;26301;42.832;23.918;2023-05-07T03:49:21;93400.22;;;6.56;100.00
40592;BME280;26301;42.832;23.918;2023-05-07T03:51:49;93407.50;;;6.52;100.00
40592;BME280;26301;42.832;23.918;2023-05-07T03:54:15;93393.72;;;6.53;100.00
40592;BME280;26301;42.832;23.918;2023-05-07T03:56:41;93378.91;;;6.49;100.00
40592;BME280;26301;42.832;23.918;2023-05-07T03:59:07;93379.69;;;6.56;100.00
40592;BME280;26301;42.832;23.918;2023-05-07T04:01:33;93401.72;;;6.70;100.00
40592;BME280;26301;42.832;23.918;2023-05-07T04:03:59;93406.81;;;6.77;100.00
40592;BME280;26301;42.832;23.918;2023-05-07T04:06:25;93408.97;;;6.86;100.00
40592;BME280;26301;42.832;23.918;2023-05-07T04:08:51;93410.72;;;6.93;100.00
40592;BME280;26301;42.832;23.918;2023-05-07T04:11:17;93389.94;;;6.94;100.00
40592;BME280;26301;42.832;23.918;2023-05-07T04:13:44;93419.88;;;7.14;100.00
40592;BME280;26301;42.832;23.918;2023-05-07T04:16:10;93412.50;;;7.24;100.00
40592;BME280;26301;42.832;23.918;2023-05-07T04:18:36;93392.16;;;7.22;100.00
40592;BME280;26301;42.832;23.918;2023-05-07T04:21:02;93420.97;;;7.56;100.00
40592;BME280;26301;42.832;23.918;2023-05-07T04:23:28;93419.97;;;7.82;100.00
40592;BME280;26301;42.832;23.918;2023-05-07T04:25:54;93383.44;;;7.98;100.00
40592;BME280;26301;42.832;23.918;2023-05-07T04:28:20;93382.59;;;8.23;100.00
40592;BME280;26301;42.832;23.918;2023-05-07T04:30:46;93413.19;;;8.68;100.00
40592;BME280;26301;42.832;23.918;2023-05-07T04:33:14;93406.50;;;8.97;100.00
40592;BME280;26301;42.832;23.918;2023-05-07T04:35:43;93394.69;;;9.20;100.00
40592;BME280;26301;42.832;23.918;2023-05-07T04:38:09;93415.75;;;9.58;100.00
40592;BME280;26301;42.832;23.918;2023-05-07T04:40:38;93392.13;;;9.73;100.00
40592;BME280;26301;42.832;23.918;2023-05-07T04:43:04;93398.53;;;10.06;98.39
40592;BME280;26301;42.832;23.918;2023-05-07T04:45:30;93421.19;;;10.39;95.88
40592;BME280;26301;42.832;23.918;2023-05-07T04:47:56;93384.28;;;10.39;95.47
40592;BME280;26301;42.832;23.918;2023-05-07T04:50:22;93402.81;;;10.76;94.36
40592;BME280;26301;42.832;23.918;2023-05-07T04:52:50;93414.22;;;11.20;93.44
40592;BME280;26301;42.832;23.918;2023-05-07T04:55:16;93414.44;;;11.48;92.93
40592;BME280;26301;42.832;23.918;2023-05-07T04:57:42;93395.88;;;11.67;90.19
40592;BME280;26301;42.832;23.918;2023-05-07T05:00:08;93424.50;;;12.11;87.46
40592;BME280;26301;42.832;23.918;2023-05-07T05:02:35;93403.41;;;12.20;87.62
40592;BME280;26301;42.832;23.918;2023-05-07T05:05:01;93435.94;;;12.71;87.32
40592;BME280;26301;42.832;23.918;2023-05-07T05:07:28;93411.28;;;12.91;90.22
40592;BME280;26301;42.832;23.918;2023-05-07T05:09:54;93427.78;;;13.29;84.38
40592;BME280;26301;42.832;23.918;2023-05-07T05:12:21;93416.50;;;13.40;79.56
40592;BME280;26301;42.832;23.918;2023-05-07T05:14:47;93408.56;;;13.52;77.28
40592;BME280;26301;42.832;23.918;2023-05-07T05:17:13;93429.81;;;13.81;77.76
40592;BME280;26301;42.832;23.918;2023-05-07T05:19:39;93415.56;;;13.83;74.03
40592;BME280;26301;42.832;23.918;2023-05-07T05:22:05;93419.53;;;13.91;73.66
40592;BME280;26301;42.832;23.918;2023-05-07T05:24:31;93404.44;;;13.88;73.60
40592;BME280;26301;42.832;23.918;2023-05-07T05:26:57;93432.22;;;14.25;72.49
40592;BME280;26301;42.832;23.918;2023-05-07T05:29:26;93428.38;;;14.32;72.51
40592;BME280;26301;42.832;23.918;2023-05-07T05:31:52;93402.41;;;14.37;71.68
40592;BME280;26301;42.832;23.918;2023-05-07T05:34:21;93440.59;;;14.79;72.39
40592;BME280;26301;42.832;23.918;2023-05-07T05:36:48;93420.31;;;14.76;70.48
40592;BME280;26301;42.832;23.918;2023-05-07T05:39:14;93445.97;;;15.15;69.63
40592;BME280;26301;42.832;23.918;2023-05-07T05:41:41;93443.94;;;15.32;67.67
40592;BME280;26301;42.832;23.918;2023-05-07T05:44:07;93440.84;;;15.51;68.89
40592;BME280;26301;42.832;23.918;2023-05-07T05:46:33;93441.97;;;15.70;67.96
40592;BME280;26301;42.832;23.918;2023-05-07T05:48:59;93447.44;;;15.84;67.22
40592;BME280;26301;42.832;23.918;2023-05-07T05:51:24;93436.75;;;15.96;67.90
40592;BME280;26301;42.832;23.918;2023-05-07T05:53:51;93415.66;;;16.03;63.05
40592;BME280;26301;42.832;23.918;2023-05-07T05:56:18;93437.78;;;16.31;63.63
40592;BME280;26301;42.832;23.918;2023-05-07T05:58:44;93445.84;;;16.50;62.53
40592;BME280;26301;42.832;23.918;2023-05-07T06:01:10;93443.72;;;16.62;59.60
40592;BME280;26301;42.832;23.918;2023-05-07T06:03:37;93441.88;;;16.67;60.90
40592;BME280;26301;42.832;23.918;2023-05-07T06:06:04;93447.63;;;16.85;61.21
40592;BME280;26301;42.832;23.918;2023-05-07T06:08:30;93449.88;;;17.07;59.51
40592;BME280;26301;42.832;23.918;2023-05-07T06:10:57;93437.84;;;17.16;61.11
40592;BME280;26301;42.832;23.918;2023-05-07T06:13:45;93447.09;;;17.43;56.93
40592;BME280;26301;42.832;23.918;2023-05-07T06:16:14;93426.97;;;17.48;58.02
40592;BME280;26301;42.832;23.918;2023-05-07T06:18:40;93442.47;;;17.79;53.99
40592;BME280;26301;42.832;23.918;2023-05-07T06:21:19;93418.66;;;17.80;53.36
40592;BME280;26301;42.832;23.918;2023-05-07T06:23:51;93429.16;;;18.10;55.03
40592;BME280;26301;42.832;23.918;2023-05-07T06:26:26;93426.47;;;18.20;55.80
40592;BME280;26301;42.832;23.918;2023-05-07T06:28:52;93405.84;;;18.18;54.02
40592;BME280;26301;42.832;23.918;2023-05-07T06:31:22;93416.03;;;18.44;53.62
40592;BME280;26301;42.832;23.918;2023-05-07T06:33:49;93406.50;;;18.29;53.34
40592;BME280;26301;42.832;23.918;2023-05-07T06:36:17;93360.63;;;18.18;51.04
40592;BME280;26301;42.832;23.918;2023-05-07T06:38:45;93401.97;;;18.40;51.23
40592;BME280;26301;42.832;23.918;2023-05-07T06:41:11;93428.00;;;18.79;50.51
40592;BME280;26301;42.832;23.918;2023-05-07T06:43:44;93408.16;;;18.78;53.45
40592;BME280;26301;42.832;23.918;2023-05-07T06:46:14;93389.44;;;18.90;51.50
40592;BME280;26301;42.832;23.918;2023-05-07T06:48:46;93423.81;;;19.26;50.21
40592;BME280;26301;42.832;23.918;2023-05-07T06:51:17;93405.53;;;19.21;49.67
40592;BME280;26301;42.832;23.918;2023-05-07T06:53:50;93427.16;;;19.51;52.98
40592;BME280;26301;42.832;23.918;2023-05-07T06:56:16;93404.75;;;19.39;50.22
40592;BME280;26301;42.832;23.918;2023-05-07T06:58:57;93430.47;;;19.56;47.78
40592;BME280;26301;42.832;23.918;2023-05-07T07:01:26;93415.53;;;19.57;46.15
40592;BME280;26301;42.832;23.918;2023-05-07T07:04:01;93427.66;;;19.72;47.56
40592;BME280;26301;42.832;23.918;2023-05-07T07:06:30;93427.03;;;19.80;48.31
40592;BME280;26301;42.832;23.918;2023-05-07T07:09:15;93427.13;;;19.88;48.56
40592;BME280;26301;42.832;23.918;2023-05-07T07:11:41;93427.72;;;19.85;48.66
40592;BME280;26301;42.832;23.918;2023-05-07T07:14:10;93394.44;;;19.67;48.25
40592;BME280;26301;42.832;23.918;2023-05-07T07:16:36;93345.06;;;19.55;48.61
40592;BME280;26301;42.832;23.918;2023-05-07T07:19:02;93398.75;;;19.96;46.14
40592;BME280;26301;42.832;23.918;2023-05-07T07:21:28;93405.00;;;20.14;48.44
40592;BME280;26301;42.832;23.918;2023-05-07T07:23:57;93391.03;;;20.18;46.80
40592;BME280;26301;42.832;23.918;2023-05-07T07:26:27;93382.19;;;20.14;49.75
40592;BME280;26301;42.832;23.918;2023-05-07T07:28:53;93381.22;;;20.10;43.98
40592;BME280;26301;42.832;23.918;2023-05-07T07:31:19;93431.78;;;20.43;45.41
40592;BME280;26301;42.832;23.918;2023-05-07T07:33:51;93392.91;;;20.31;42.57
40592;BME280;26301;42.832;23.918;2023-05-07T07:36:18;93413.88;;;20.64;42.12
40592;BME280;26301;42.832;23.918;2023-05-07T07:38:44;93425.94;;;20.93;43.16
40592;BME280;26301;42.832;23.918;2023-05-07T07:41:10;93436.84;;;21.00;39.65
40592;BME280;26301;42.832;23.918;2023-05-07T07:43:37;93427.50;;;20.94;41.34
40592;BME280;26301;42.832;23.918;2023-05-07T07:46:09;93408.72;;;20.87;41.74
40592;BME280;26301;42.832;23.918;2023-05-07T07:48:36;93439.53;;;21.22;41.28
40592;BME280;26301;42.832;23.918;2023-05-07T07:51:02;93446.91;;;21.20;40.76
40592;BME280;26301;42.832;23.918;2023-05-07T07:53:29;93402.56;;;21.05;41.21
40592;BME280;26301;42.832;23.918;2023-05-07T07:55:56;93432.44;;;21.23;39.37
40592;BME280;26301;42.832;23.918;2023-05-07T07:58:24;93436.13;;;21.36;38.37
40592;BME280;26301;42.832;23.918;2023-05-07T08:00:50;93414.53;;;21.25;41.74
40592;BME280;26301;42.832;23.918;2023-05-07T08:03:17;93433.66;;;21.53;40.09
40592;BME280;26301;42.832;23.918;2023-05-07T08:05:43;93435.25;;;21.54;40.06
40592;BME280;26301;42.832;23.918;2023-05-07T08:08:10;93428.81;;;21.60;39.14
40592;BME280;26301;42.832;23.918;2023-05-07T08:10:36;93426.28;;;21.78;39.07
40592;BME280;26301;42.832;23.918;2023-05-07T08:13:05;93412.53;;;21.58;37.22
40592;BME280;26301;42.832;23.918;2023-05-07T08:15:31;93414.78;;;21.87;33.94
40592;BME280;26301;42.832;23.918;2023-05-07T08:17:58;93425.66;;;21.95;36.74
40592;BME280;26301;42.832;23.918;2023-05-07T08:20:28;93423.53;;;21.97;36.48
40592;BME280;26301;42.832;23.918;2023-05-07T08:22:57;93422.78;;;22.05;36.84
40592;BME280;26301;42.832;23.918;2023-05-07T08:25:23;93430.56;;;22.10;34.27
40592;BME280;26301;42.832;23.918;2023-05-07T08:27:50;93409.53;;;21.87;36.32
40592;BME280;26301;42.832;23.918;2023-05-07T08:30:17;93413.28;;;21.95;35.03
40592;BME280;26301;42.832;23.918;2023-05-07T08:32:44;93408.75;;;22.09;37.28
40592;BME280;26301;42.832;23.918;2023-05-07T08:35:10;93419.41;;;22.27;40.54
40592;BME280;26301;42.832;23.918;2023-05-07T08:37:36;93397.94;;;21.88;37.46
40592;BME280;26301;42.832;23.918;2023-05-07T08:40:03;93399.19;;;21.91;39.01
40592;BME280;26301;42.832;23.918;2023-05-07T08:42:29;93409.84;;;22.31;40.15
40592;BME280;26301;42.832;23.918;2023-05-07T08:44:57;93414.78;;;22.64;39.27
40592;BME280;26301;42.832;23.918;2023-05-07T08:47:29;93410.78;;;22.66;38.83
40592;BME280;26301;42.832;23.918;2023-05-07T08:50:02;93385.31;;;22.84;39.01
40592;BME280;26301;42.832;23.918;2023-05-07T08:52:29;93389.22;;;22.95;37.17
40592;BME280;26301;42.832;23.918;2023-05-07T08:54:56;93419.50;;;23.15;38.81
40592;BME280;26301;42.832;23.918;2023-05-07T08:57:23;93419.44;;;22.98;39.86
40592;BME280;26301;42.832;23.918;2023-05-07T08:59:50;93401.81;;;23.07;38.47
40592;BME280;26301;42.832;23.918;2023-05-07T09:02:15;93410.28;;;22.95;38.23
40592;BME280;26301;42.832;23.918;2023-05-07T09:04:42;93410.25;;;22.87;37.25
40592;BME280;26301;42.832;23.918;2023-05-07T09:07:11;93398.91;;;22.77;37.64
40592;BME280;26301;42.832;23.918;2023-05-07T09:09:37;93404.38;;;22.90;40.26
40592;BME280;26301;42.832;23.918;2023-05-07T09:12:03;93388.56;;;22.90;41.46
40592;BME280;26301;42.832;23.918;2023-05-07T09:14:29;93386.06;;;22.85;35.59
40592;BME280;26301;42.832;23.918;2023-05-07T09:16:56;93384.78;;;22.73;35.19
40592;BME280;26301;42.832;23.918;2023-05-07T09:19:26;93411.97;;;22.91;39.32
40592;BME280;26301;42.832;23.918;2023-05-07T09:22:03;93402.25;;;23.00;36.85
40592;BME280;26301;42.832;23.918;2023-05-07T09:24:30;93399.34;;;23.11;35.51
40592;BME280;26301;42.832;23.918;2023-05-07T09:27:01;93371.75;;;23.25;35.51
40592;BME280;26301;42.832;23.918;2023-05-07T09:29:28;93395.69;;;23.38;35.61
40592;BME280;26301;42.832;23.918;2023-05-07T09:31:56;93390.34;;;23.12;35.40
40592;BME280;26301;42.832;23.918;2023-05-07T09:34:22;93385.28;;;23.33;36.35
40592;BME280;26301;42.832;23.918;2023-05-07T09:36:48;93377.84;;;23.26;35.21
40592;BME280;26301;42.832;23.918;2023-05-07T09:39:15;93389.94;;;23.36;34.50
40592;BME280;26301;42.832;23.918;2023-05-07T09:41:46;93360.31;;;23.21;38.32
40592;BME280;26301;42.832;23.918;2023-05-07T09:44:14;93380.47;;;23.43;34.51
40592;BME280;26301;42.832;23.918;2023-05-07T09:46:43;93385.28;;;23.41;37.45
40592;BME280;26301;42.832;23.918;2023-05-07T09:49:21;93373.97;;;23.41;33.73
40592;BME280;26301;42.832;23.918;2023-05-07T09:51:52;93365.59;;;23.47;34.19
40592;BME280;26301;42.832;23.918;2023-05-07T09:54:18;93367.00;;;23.54;35.71
40592;BME280;26301;42.832;23.918;2023-05-07T09:56:45;93372.44;;;23.66;36.54
40592;BME280;26301;42.832;23.918;2023-05-07T09:59:15;93367.19;;;23.92;35.39
40592;BME280;26301;42.832;23.918;2023-05-07T10:01:43;93374.28;;;24.09;39.06
40592;BME280;26301;42.832;23.918;2023-05-07T10:04:14;93349.75;;;24.08;34.27
40592;BME280;26301;42.832;23.918;2023-05-07T10:06:47;93359.53;;;24.16;34.72
40592;BME280;26301;42.832;23.918;2023-05-07T10:09:14;93374.00;;;23.93;36.03
40592;BME280;26301;42.832;23.918;2023-05-07T10:11:41;93346.22;;;23.95;33.79
40592;BME280;26301;42.832;23.918;2023-05-07T10:14:07;93366.47;;;24.21;36.91
40592;BME280;26301;42.832;23.918;2023-05-07T10:16:36;93295.69;;;23.24;33.64
40592;BME280;26301;42.832;23.918;2023-05-07T10:19:09;93365.16;;;23.71;34.06
40592;BME280;26301;42.832;23.918;2023-05-07T10:21:37;93295.19;;;23.22;34.95
40592;BME280;26301;42.832;23.918;2023-05-07T10:24:21;93359.09;;;23.62;35.89
40592;BME280;26301;42.832;23.918;2023-05-07T10:26:52;93349.47;;;23.40;33.47
40592;BME280;26301;42.832;23.918;2023-05-07T10:29:30;93357.63;;;23.04;32.66
40592;BME280;26301;42.832;23.918;2023-05-07T10:34:57;93311.91;;;22.43;34.29
40592;BME280;26301;42.832;23.918;2023-05-07T10:37:25;93342.16;;;22.54;35.31
40592;BME280;26301;42.832;23.918;2023-05-07T10:39:52;93302.13;;;22.34;35.33
40592;BME280;26301;42.832;23.918;2023-05-07T10:42:18;93353.44;;;22.54;35.09
40592;BME280;26301;42.832;23.918;2023-05-07T10:44:47;93294.72;;;22.14;35.85
40592;BME280;26301;42.832;23.918;2023-05-07T10:47:14;93264.69;;;22.06;35.60
40592;BME280;26301;42.832;23.918;2023-05-07T10:54:44;93334.44;;;23.41;37.87
40592;BME280;26301;42.832;23.918;2023-05-07T10:59:55;93343.72;;;23.21;34.75
40592;BME280;26301;42.832;23.918;2023-05-07T11:02:20;93318.28;;;23.25;37.79
40592;BME280;26301;42.832;23.918;2023-05-07T11:05:22;93340.75;;;23.22;35.03
40592;BME280;26301;42.832;23.918;2023-05-07T11:07:58;93336.88;;;23.02;34.44
40592;BME280;26301;42.832;23.918;2023-05-07T11:13:15;93312.19;;;22.81;35.62
40592;BME280;26301;42.832;23.918;2023-05-07T11:15:45;93336.69;;;22.90;33.46
40592;BME280;26301;42.832;23.918;2023-05-07T11:18:13;93319.72;;;22.65;35.53
40592;BME280;26301;42.832;23.918;2023-05-07T11:20:50;93267.47;;;22.41;35.88
40592;BME280;26301;42.832;23.918;2023-05-07T11:26:00;93295.50;;;22.94;36.69
40592;BME280;26301;42.832;23.918;2023-05-07T11:28:28;93313.19;;;23.02;34.97
40592;BME280;26301;42.832;23.918;2023-05-07T11:30:54;93332.25;;;23.17;36.26
40592;BME280;26301;42.832;23.918;2023-05-07T11:33:23;93330.06;;;23.10;34.47
40592;BME280;26301;42.832;23.918;2023-05-07T11:35:54;93349.75;;;23.13;34.72
40592;BME280;26301;42.832;23.918;2023-05-07T11:38:21;93332.03;;;22.87;34.44
40592;BME280;26301;42.832;23.918;2023-05-07T11:40:55;93347.06;;;22.95;33.76
40592;BME280;26301;42.832;23.918;2023-05-07T11:43:21;93343.75;;;22.72;34.20
40592;BME280;26301;42.832;23.918;2023-05-07T11:45:50;93344.41;;;22.47;33.78
40592;BME280;26301;42.832;23.918;2023-05-07T11:48:17;93343.78;;;22.41;36.04
40592;BME280;26301;42.832;23.918;2023-05-07T11:53:34;93343.22;;;22.53;36.82
40592;BME280;26301;42.832;23.918;2023-05-07T11:56:06;93318.25;;;22.42;34.55
40592;BME280;26301;42.832;23.918;2023-05-07T11:58:33;93341.88;;;22.73;36.03
40592;BME280;26301;42.832;23.918;2023-05-07T12:00:59;93337.75;;;22.80;35.58
40592;BME280;26301;42.832;23.918;2023-05-07T12:03:25;93333.25;;;22.81;34.33
40592;BME280;26301;42.832;23.918;2023-05-07T12:05:51;93315.56;;;22.73;34.65
40592;BME280;26301;42.832;23.918;2023-05-07T12:08:18;93260.56;;;22.63;34.86
40592;BME280;26301;42.832;23.918;2023-05-07T12:10:46;93326.81;;;23.13;34.01
40592;BME280;26301;42.832;23.918;2023-05-07T12:13:30;93303.28;;;23.08;33.05
40592;BME280;26301;42.832;23.918;2023-05-07T12:15:56;93265.44;;;23.04;34.35
40592;BME280;26301;42.832;23.918;2023-05-07T12:18:22;93319.22;;;23.55;35.91
40592;BME280;26301;42.832;23.918;2023-05-07T12:20:49;93310.53;;;23.63;38.30
40592;BME280;26301;42.832;23.918;2023-05-07T12:23:17;93321.72;;;23.51;36.19
40592;BME280;26301;42.832;23.918;2023-05-07T12:25:43;93297.22;;;23.42;37.14
40592;BME280;26301;42.832;23.918;2023-05-07T12:28:29;93292.09;;;23.37;34.18
40592;BME280;26301;42.832;23.918;2023-05-07T12:30:56;93302.34;;;23.39;33.62
40592;BME280;26301;42.832;23.918;2023-05-07T12:33:26;93306.69;;;23.35;34.49
40592;BME280;26301;42.832;23.918;2023-05-07T12:35:55;93278.94;;;23.02;33.51
40592;BME280;26301;42.832;23.918;2023-05-07T12:38:22;93309.78;;;23.28;35.40
40592;BME280;26301;42.832;23.918;2023-05-07T12:40:53;93275.53;;;23.02;36.98
40592;BME280;26301;42.832;23.918;2023-05-07T12:43:21;93293.03;;;23.07;35.52
40592;BME280;26301;42.832;23.918;2023-05-07T12:45:49;93234.56;;;22.70;36.63
40592;BME280;26301;42.832;23.918;2023-05-07T12:48:16;93309.31;;;23.17;34.80
40592;BME280;26301;42.832;23.918;2023-05-07T12:50:42;93235.03;;;22.72;35.80
40592;BME280;26301;42.832;23.918;2023-05-07T12:53:10;93268.06;;;22.87;34.35
40592;BME280;26301;42.832;23.918;2023-05-07T12:55:45;93299.06;;;23.07;37.33
40592;BME280;26301;42.832;23.918;2023-05-07T12:58:19;93300.94;;;23.07;38.06
40592;BME280;26301;42.832;23.918;2023-05-07T13:00:48;93296.28;;;23.12;38.82
40592;BME280;26301;42.832;23.918;2023-05-07T13:03:21;93270.38;;;22.88;36.82
40592;BME280;26301;42.832;23.918;2023-05-07T13:05:49;93291.59;;;22.92;36.02
40592;BME280;26301;42.832;23.918;2023-05-07T13:08:34;93262.78;;;22.78;36.85
40592;BME280;26301;42.832;23.918;2023-05-07T13:11:04;93241.00;;;22.37;38.96
40592;BME280;26301;42.832;23.918;2023-05-07T13:13:31;93278.22;;;22.71;38.72
40592;BME280;26301;42.832;23.918;2023-05-07T13:15:57;93272.53;;;22.77;37.20
40592;BME280;26301;42.832;23.918;2023-05-07T13:18:25;93275.91;;;22.69;35.54
40592;BME280;26301;42.832;23.918;2023-05-07T13:20:52;93246.00;;;22.48;36.68